sensor_id;sensor_type;location;lat;lon;timestamp;P1;durP1;ratioP1;P2;durP2;ratioP2
3207;SDS011;1616;52.394;9.756;2023-09-12T00:00:49;21.23;;;11.53;;
3207;SDS011;1616;52.394;9.756;2023-09-12T00:03:18;12.17;;;11.00;;
3207;SDS011;1616;52.394;9.756;2023-09-12T00:05:55;14.23;;;11.80;;
3207;SDS011;1616;52.394;9.756;2023-09-12T00:08:22;14.70;;;11.73;;
3207;SDS011;1616;52.394;9.756;2023-09-12T00:11:01;14.00;;;12.70;;
3207;SDS011;1616;52.394;9.756;2023-09-12T00:13:28;12.40;;;11.10;;
3207;SDS011;1616;52.394;9.756;2023-09-12T00:15:55;21.77;;;14.10;;
3207;SDS011;1616;52.394;9.756;2023-09-12T00:18:21;14.23;;;12.80;;
3207;SDS011;1616;52.394;9.756;2023-09-12T00:20:46;15.83;;;12.20;;
3207;SDS011;1616;52.394;9.756;2023-09-12T00:23:12;14.70;;;13.17;;
3207;SDS011;1616;52.394;9.756;2023-09-12T00:25:38;14.37;;;12.90;;
3207;SDS011;1616;52.394;9.756;2023-09-12T00:28:04;13.63;;;12.33;;
3207;SDS011;1616;52.394;9.756;2023-09-12T00:30:29;21.80;;;12.70;;
3207;SDS011;1616;52.394;9.756;2023-09-12T00:32:55;14.70;;;13.10;;
3207;SDS011;1616;52.394;9.756;2023-09-12T00:35:20;27.47;;;14.43;;
3207;SDS011;1616;52.394;9.756;2023-09-12T00:37:46;15.80;;;11.60;;
3207;SDS011;1616;52.394;9.756;2023-09-12T00:40:13;17.70;;;13.10;;
3207;SDS011;1616;52.394;9.756;2023-09-12T00:42:39;19.47;;;11.73;;
3207;SDS011;1616;52.394;9.756;2023-09-12T00:45:06;15.10;;;13.57;;
3207;SDS011;1616;52.394;9.756;2023-09-12T00:47:32;16.17;;;14.53;;
3207;SDS011;1616;52.394;9.756;2023-09-12T00:49:58;22.00;;;15.80;;
3207;SDS011;1616;52.394;9.756;2023-09-12T00:52:25;18.03;;;16.17;;
3207;SDS011;1616;52.394;9.756;2023-09-12T00:54:53;17.47;;;15.03;;
3207;SDS011;1616;52.394;9.756;2023-09-12T00:57:21;18.50;;;14.57;;
3207;SDS011;1616;52.394;9.756;2023-09-12T00:59:49;18.17;;;16.37;;
3207;SDS011;1616;52.394;9.756;2023-09-12T01:02:17;25.53;;;16.60;;
3207;SDS011;1616;52.394;9.756;2023-09-12T01:04:44;15.73;;;14.33;;
3207;SDS011;1616;52.394;9.756;2023-09-12T01:07:10;18.20;;;16.43;;
3207;SDS011;1616;52.394;9.756;2023-09-12T01:09:36;18.07;;;16.37;;
3207;SDS011;1616;52.394;9.756;2023-09-12T01:12:02;16.07;;;14.53;;
3207;SDS011;1616;52.394;9.756;2023-09-12T01:14:28;19.33;;;15.50;;
3207;SDS011;1616;52.394;9.756;2023-09-12T01:16:55;28.67;;;16.47;;
3207;SDS011;1616;52.394;9.756;2023-09-12T01:19:21;27.70;;;16.80;;
3207;SDS011;1616;52.394;9.756;2023-09-12T01:29:53;16.77;;;15.30;;
3207;SDS011;1616;52.394;9.756;2023-09-12T01:32:22;18.40;;;14.80;;
3207;SDS011;1616;52.394;9.756;2023-09-12T01:34:48;17.67;;;13.90;;
3207;SDS011;1616;52.394;9.756;2023-09-12T01:37:14;15.93;;;14.30;;
3207;SDS011;1616;52.394;9.756;2023-09-12T01:39:40;16.60;;;15.03;;
3207;SDS011;1616;52.394;9.756;2023-09-12T01:42:08;18.13;;;15.47;;
3207;SDS011;1616;52.394;9.756;2023-09-12T01:44:40;20.23;;;16.47;;
3207;SDS011;1616;52.394;9.756;2023-09-12T01:47:08;30.30;;;16.17;;
3207;SDS011;1616;52.394;9.756;2023-09-12T01:49:37;16.43;;;14.10;;
3207;SDS011;1616;52.394;9.756;2023-09-12T01:52:06;16.97;;;15.50;;
3207;SDS011;1616;52.394;9.756;2023-09-12T01:54:33;22.53;;;15.37;;
3207;SDS011;1616;52.394;9.756;2023-09-12T01:57:01;20.30;;;16.33;;
3207;SDS011;1616;52.394;9.756;2023-09-12T01:59:28;16.90;;;15.37;;
3207;SDS011;1616;52.394;9.756;2023-09-12T02:01:54;20.40;;;17.97;;
3207;SDS011;1616;52.394;9.756;2023-09-12T02:04:20;20.10;;;17.37;;
3207;SDS011;1616;52.394;9.756;2023-09-12T02:06:46;21.40;;;16.53;;
3207;SDS011;1616;52.394;9.756;2023-09-12T02:09:11;18.30;;;16.60;;
3207;SDS011;1616;52.394;9.756;2023-09-12T02:11:37;18.57;;;16.97;;
3207;SDS011;1616;52.394;9.756;2023-09-12T02:14:03;19.30;;;15.93;;
3207;SDS011;1616;52.394;9.756;2023-09-12T02:16:30;25.13;;;17.50;;
3207;SDS011;1616;52.394;9.756;2023-09-12T02:18:56;20.70;;;16.70;;
3207;SDS011;1616;52.394;9.756;2023-09-12T02:21:22;16.40;;;15.20;;
3207;SDS011;1616;52.394;9.756;2023-09-12T02:23:48;19.80;;;17.03;;
3207;SDS011;1616;52.394;9.756;2023-09-12T02:26:14;17.40;;;15.77;;
3207;SDS011;1616;52.394;9.756;2023-09-12T02:28:39;19.93;;;17.33;;
3207;SDS011;1616;52.394;9.756;2023-09-12T02:31:11;30.33;;;19.10;;
3207;SDS011;1616;52.394;9.756;2023-09-12T02:33:38;18.90;;;16.87;;
3207;SDS011;1616;52.394;9.756;2023-09-12T02:36:05;20.60;;;16.57;;
3207;SDS011;1616;52.394;9.756;2023-09-12T02:38:31;19.40;;;17.30;;
3207;SDS011;1616;52.394;9.756;2023-09-12T02:40:57;21.53;;;15.13;;
3207;SDS011;1616;52.394;9.756;2023-09-12T02:43:23;18.43;;;16.77;;
3207;SDS011;1616;52.394;9.756;2023-09-12T02:45:49;22.77;;;16.93;;
3207;SDS011;1616;52.394;9.756;2023-09-12T02:48:15;19.13;;;16.73;;
3207;SDS011;1616;52.394;9.756;2023-09-12T02:50:41;17.70;;;15.90;;
3207;SDS011;1616;52.394;9.756;2023-09-12T02:53:07;18.30;;;15.37;;
3207;SDS011;1616;52.394;9.756;2023-09-12T02:55:32;20.73;;;17.47;;
3207;SDS011;1616;52.394;9.756;2023-09-12T02:57:58;18.63;;;16.50;;
3207;SDS011;1616;52.394;9.756;2023-09-12T03:00:24;21.17;;;16.93;;
3207;SDS011;1616;52.394;9.756;2023-09-12T03:02:50;17.60;;;16.07;;
3207;SDS011;1616;52.394;9.756;2023-09-12T03:05:15;19.10;;;17.50;;
3207;SDS011;1616;52.394;9.756;2023-09-12T03:07:41;18.67;;;16.80;;
3207;SDS011;1616;52.394;9.756;2023-09-12T03:10:07;21.20;;;19.10;;
3207;SDS011;1616;52.394;9.756;2023-09-12T03:12:34;28.77;;;20.57;;
3207;SDS011;1616;52.394;9.756;2023-09-12T03:15:00;21.63;;;19.43;;
3207;SDS011;1616;52.394;9.756;2023-09-12T03:17:27;25.63;;;21.67;;
3207;SDS011;1616;52.394;9.756;2023-09-12T03:19:54;24.60;;;21.97;;
3207;SDS011;1616;52.394;9.756;2023-09-12T03:22:19;27.73;;;21.97;;
3207;SDS011;1616;52.394;9.756;2023-09-12T03:24:45;23.57;;;21.17;;
3207;SDS011;1616;52.394;9.756;2023-09-12T03:27:11;23.57;;;21.33;;
3207;SDS011;1616;52.394;9.756;2023-09-12T03:29:37;23.10;;;20.77;;
3207;SDS011;1616;52.394;9.756;2023-09-12T03:32:02;28.63;;;21.30;;
3207;SDS011;1616;52.394;9.756;2023-09-12T03:34:29;23.47;;;19.90;;
3207;SDS011;1616;52.394;9.756;2023-09-12T03:36:54;22.43;;;19.07;;
3207;SDS011;1616;52.394;9.756;2023-09-12T03:39:20;20.77;;;18.70;;
3207;SDS011;1616;52.394;9.756;2023-09-12T03:41:45;21.10;;;18.00;;
3207;SDS011;1616;52.394;9.756;2023-09-12T03:44:11;24.70;;;22.40;;
3207;SDS011;1616;52.394;9.756;2023-09-12T03:46:37;22.00;;;19.80;;
3207;SDS011;1616;52.394;9.756;2023-09-12T03:49:02;25.47;;;19.77;;
3207;SDS011;1616;52.394;9.756;2023-09-12T03:51:28;28.90;;;21.70;;
3207;SDS011;1616;52.394;9.756;2023-09-12T03:53:54;27.13;;;21.13;;
3207;SDS011;1616;52.394;9.756;2023-09-12T03:56:19;23.30;;;19.63;;
3207;SDS011;1616;52.394;9.756;2023-09-12T03:58:46;28.80;;;21.50;;
3207;SDS011;1616;52.394;9.756;2023-09-12T04:01:11;22.77;;;19.57;;
3207;SDS011;1616;52.394;9.756;2023-09-12T04:03:37;23.90;;;21.40;;
3207;SDS011;1616;52.394;9.756;2023-09-12T04:06:03;22.77;;;20.47;;
3207;SDS011;1616;52.394;9.756;2023-09-12T04:08:29;25.50;;;22.87;;
3207;SDS011;1616;52.394;9.756;2023-09-12T04:10:55;25.33;;;19.67;;
3207;SDS011;1616;52.394;9.756;2023-09-12T04:13:20;23.93;;;19.30;;
3207;SDS011;1616;52.394;9.756;2023-09-12T04:15:46;22.10;;;16.67;;
3207;SDS011;1616;52.394;9.756;2023-09-12T04:18:12;20.17;;;18.00;;
3207;SDS011;1616;52.394;9.756;2023-09-12T04:20:38;18.57;;;15.90;;
3207;SDS011;1616;52.394;9.756;2023-09-12T04:23:04;17.97;;;15.80;;
3207;SDS011;1616;52.394;9.756;2023-09-12T04:25:29;18.73;;;16.83;;
3207;SDS011;1616;52.394;9.756;2023-09-12T04:27:56;17.73;;;16.23;;
3207;SDS011;1616;52.394;9.756;2023-09-12T04:30:21;20.13;;;16.00;;
3207;SDS011;1616;52.394;9.756;2023-09-12T04:32:47;15.97;;;14.47;;
3207;SDS011;1616;52.394;9.756;2023-09-12T04:35:13;15.47;;;14.00;;
3207;SDS011;1616;52.394;9.756;2023-09-12T04:37:39;14.63;;;13.23;;
3207;SDS011;1616;52.394;9.756;2023-09-12T04:40:05;16.23;;;14.57;;
3207;SDS011;1616;52.394;9.756;2023-09-12T04:42:32;13.07;;;12.13;;
3207;SDS011;1616;52.394;9.756;2023-09-12T04:44:57;16.30;;;14.80;;
3207;SDS011;1616;52.394;9.756;2023-09-12T04:47:24;18.50;;;14.60;;
3207;SDS011;1616;52.394;9.756;2023-09-12T04:49:49;14.53;;;11.93;;
3207;SDS011;1616;52.394;9.756;2023-09-12T04:52:16;11.67;;;10.80;;
3207;SDS011;1616;52.394;9.756;2023-09-12T04:54:41;14.10;;;10.00;;
3207;SDS011;1616;52.394;9.756;2023-09-12T04:57:07;12.13;;;10.97;;
3207;SDS011;1616;52.394;9.756;2023-09-12T04:59:33;12.40;;;11.20;;
3207;SDS011;1616;52.394;9.756;2023-09-12T05:01:59;12.57;;;11.40;;
3207;SDS011;1616;52.394;9.756;2023-09-12T05:04:25;17.30;;;15.50;;
3207;SDS011;1616;52.394;9.756;2023-09-12T05:06:51;16.10;;;14.80;;
3207;SDS011;1616;52.394;9.756;2023-09-12T05:09:16;15.10;;;13.47;;
3207;SDS011;1616;52.394;9.756;2023-09-12T05:11:42;13.90;;;12.80;;
3207;SDS011;1616;52.394;9.756;2023-09-12T05:14:09;14.57;;;13.20;;
3207;SDS011;1616;52.394;9.756;2023-09-12T05:16:35;15.93;;;13.43;;
3207;SDS011;1616;52.394;9.756;2023-09-12T05:19:00;12.53;;;11.33;;
3207;SDS011;1616;52.394;9.756;2023-09-12T05:21:26;19.83;;;11.30;;
3207;SDS011;1616;52.394;9.756;2023-09-12T05:23:52;15.50;;;13.27;;
3207;SDS011;1616;52.394;9.756;2023-09-12T05:26:17;18.77;;;11.77;;
3207;SDS011;1616;52.394;9.756;2023-09-12T05:28:43;15.53;;;11.40;;
3207;SDS011;1616;52.394;9.756;2023-09-12T05:31:09;15.00;;;11.20;;
3207;SDS011;1616;52.394;9.756;2023-09-12T05:33:35;17.93;;;10.83;;
3207;SDS011;1616;52.394;9.756;2023-09-12T05:36:01;13.37;;;8.90;;
3207;SDS011;1616;52.394;9.756;2023-09-12T05:38:27;10.03;;;9.00;;
3207;SDS011;1616;52.394;9.756;2023-09-12T05:40:53;17.33;;;10.77;;
3207;SDS011;1616;52.394;9.756;2023-09-12T05:43:18;10.33;;;9.43;;
3207;SDS011;1616;52.394;9.756;2023-09-12T05:45:44;11.07;;;9.97;;
3207;SDS011;1616;52.394;9.756;2023-09-12T05:48:10;10.40;;;9.07;;
3207;SDS011;1616;52.394;9.756;2023-09-12T05:50:36;12.40;;;11.30;;
3207;SDS011;1616;52.394;9.756;2023-09-12T05:53:02;8.53;;;8.07;;
3207;SDS011;1616;52.394;9.756;2023-09-12T05:55:28;13.17;;;7.70;;
3207;SDS011;1616;52.394;9.756;2023-09-12T05:57:54;9.00;;;8.20;;
3207;SDS011;1616;52.394;9.756;2023-09-12T06:00:19;8.17;;;7.43;;
3207;SDS011;1616;52.394;9.756;2023-09-12T06:02:46;7.40;;;6.80;;
3207;SDS011;1616;52.394;9.756;2023-09-12T06:05:13;6.73;;;6.23;;
3207;SDS011;1616;52.394;9.756;2023-09-12T06:07:39;10.23;;;6.83;;
3207;SDS011;1616;52.394;9.756;2023-09-12T06:10:06;7.07;;;6.50;;
3207;SDS011;1616;52.394;9.756;2023-09-12T06:12:33;11.30;;;6.60;;
3207;SDS011;1616;52.394;9.756;2023-09-12T06:15:01;13.20;;;8.33;;
3207;SDS011;1616;52.394;9.756;2023-09-12T06:17:29;7.93;;;7.30;;
3207;SDS011;1616;52.394;9.756;2023-09-12T06:19:55;10.40;;;7.07;;
3207;SDS011;1616;52.394;9.756;2023-09-12T06:22:21;9.40;;;7.70;;
3207;SDS011;1616;52.394;9.756;2023-09-12T06:24:48;13.40;;;6.77;;
3207;SDS011;1616;52.394;9.756;2023-09-12T06:27:14;6.53;;;6.03;;
3207;SDS011;1616;52.394;9.756;2023-09-12T06:29:46;7.57;;;6.90;;
3207;SDS011;1616;52.394;9.756;2023-09-12T06:32:19;7.13;;;6.10;;
3207;SDS011;1616;52.394;9.756;2023-09-12T06:34:45;15.53;;;5.83;;
3207;SDS011;1616;52.394;9.756;2023-09-12T06:37:11;14.90;;;6.40;;
3207;SDS011;1616;52.394;9.756;2023-09-12T06:39:37;6.93;;;6.33;;
3207;SDS011;1616;52.394;9.756;2023-09-12T06:42:03;8.27;;;6.30;;
3207;SDS011;1616;52.394;9.756;2023-09-12T06:44:28;10.73;;;7.70;;
3207;SDS011;1616;52.394;9.756;2023-09-12T06:46:54;6.87;;;6.27;;
3207;SDS011;1616;52.394;9.756;2023-09-12T06:49:20;7.07;;;6.07;;
3207;SDS011;1616;52.394;9.756;2023-09-12T06:51:46;6.43;;;5.90;;
3207;SDS011;1616;52.394;9.756;2023-09-12T06:54:11;6.17;;;5.67;;
3207;SDS011;1616;52.394;9.756;2023-09-12T06:56:37;6.43;;;5.73;;
3207;SDS011;1616;52.394;9.756;2023-09-12T06:59:03;6.93;;;5.77;;
3207;SDS011;1616;52.394;9.756;2023-09-12T07:01:29;6.57;;;6.03;;
3207;SDS011;1616;52.394;9.756;2023-09-12T07:03:55;6.53;;;5.33;;
3207;SDS011;1616;52.394;9.756;2023-09-12T07:06:21;6.10;;;5.57;;
3207;SDS011;1616;52.394;9.756;2023-09-12T07:08:50;18.17;;;7.67;;
3207;SDS011;1616;52.394;9.756;2023-09-12T07:11:16;8.00;;;6.20;;
3207;SDS011;1616;52.394;9.756;2023-09-12T07:13:42;8.67;;;6.40;;
3207;SDS011;1616;52.394;9.756;2023-09-12T07:16:08;11.97;;;8.30;;
3207;SDS011;1616;52.394;9.756;2023-09-12T07:18:33;10.83;;;8.00;;
3207;SDS011;1616;52.394;9.756;2023-09-12T07:21:00;9.33;;;8.00;;
3207;SDS011;1616;52.394;9.756;2023-09-12T07:23:27;9.57;;;8.73;;
3207;SDS011;1616;52.394;9.756;2023-09-12T07:25:54;11.47;;;10.17;;
3207;SDS011;1616;52.394;9.756;2023-09-12T07:28:26;12.00;;;10.90;;
3207;SDS011;1616;52.394;9.756;2023-09-12T07:30:52;14.47;;;13.00;;
3207;SDS011;1616;52.394;9.756;2023-09-12T07:33:19;14.00;;;12.60;;
3207;SDS011;1616;52.394;9.756;2023-09-12T07:35:46;16.37;;;14.63;;
3207;SDS011;1616;52.394;9.756;2023-09-12T07:38:13;15.53;;;13.30;;
3207;SDS011;1616;52.394;9.756;2023-09-12T07:40:41;16.93;;;15.27;;
3207;SDS011;1616;52.394;9.756;2023-09-12T07:43:07;17.60;;;15.87;;
3207;SDS011;1616;52.394;9.756;2023-09-12T07:45:34;14.30;;;12.90;;
3207;SDS011;1616;52.394;9.756;2023-09-12T07:48:11;14.07;;;12.83;;
3207;SDS011;1616;52.394;9.756;2023-09-12T07:50:37;12.87;;;12.00;;
3207;SDS011;1616;52.394;9.756;2023-09-12T07:53:04;13.63;;;12.53;;
3207;SDS011;1616;52.394;9.756;2023-09-12T07:55:30;10.10;;;9.10;;
3207;SDS011;1616;52.394;9.756;2023-09-12T07:58:01;12.70;;;11.37;;
3207;SDS011;1616;52.394;9.756;2023-09-12T08:00:27;13.57;;;12.40;;
3207;SDS011;1616;52.394;9.756;2023-09-12T08:02:53;13.17;;;11.87;;
3207;SDS011;1616;52.394;9.756;2023-09-12T08:05:18;10.53;;;9.53;;
3207;SDS011;1616;52.394;9.756;2023-09-12T08:07:44;9.83;;;9.00;;
3207;SDS011;1616;52.394;9.756;2023-09-12T08:10:09;13.00;;;11.60;;
3207;SDS011;1616;52.394;9.756;2023-09-12T08:12:35;9.20;;;8.40;;
3207;SDS011;1616;52.394;9.756;2023-09-12T08:15:03;11.90;;;9.43;;
3207;SDS011;1616;52.394;9.756;2023-09-12T08:17:29;9.20;;;8.30;;
3207;SDS011;1616;52.394;9.756;2023-09-12T08:19:55;11.43;;;8.10;;
3207;SDS011;1616;52.394;9.756;2023-09-12T08:22:21;11.17;;;10.17;;
3207;SDS011;1616;52.394;9.756;2023-09-12T08:24:47;8.20;;;7.50;;
3207;SDS011;1616;52.394;9.756;2023-09-12T08:27:12;11.27;;;10.27;;
3207;SDS011;1616;52.394;9.756;2023-09-12T08:29:38;9.13;;;8.13;;
3207;SDS011;1616;52.394;9.756;2023-09-12T08:32:04;10.10;;;9.17;;
3207;SDS011;1616;52.394;9.756;2023-09-12T08:34:30;9.70;;;8.90;;
3207;SDS011;1616;52.394;9.756;2023-09-12T08:36:56;14.33;;;12.53;;
3207;SDS011;1616;52.394;9.756;2023-09-12T08:39:26;9.30;;;8.80;;
3207;SDS011;1616;52.394;9.756;2023-09-12T08:41:53;9.70;;;9.07;;
3207;SDS011;1616;52.394;9.756;2023-09-12T08:44:19;8.37;;;7.67;;
3207;SDS011;1616;52.394;9.756;2023-09-12T08:46:46;10.80;;;9.90;;
3207;SDS011;1616;52.394;9.756;2023-09-12T08:49:14;13.67;;;12.17;;
3207;SDS011;1616;52.394;9.756;2023-09-12T08:51:40;9.23;;;7.83;;
3207;SDS011;1616;52.394;9.756;2023-09-12T08:54:07;10.10;;;9.07;;
3207;SDS011;1616;52.394;9.756;2023-09-12T08:56:35;11.30;;;10.30;;
3207;SDS011;1616;52.394;9.756;2023-09-12T08:59:04;9.40;;;8.53;;
3207;SDS011;1616;52.394;9.756;2023-09-12T09:01:31;9.83;;;8.60;;
3207;SDS011;1616;52.394;9.756;2023-09-12T09:03:58;11.60;;;10.53;;
3207;SDS011;1616;52.394;9.756;2023-09-12T09:06:27;7.90;;;7.50;;
3207;SDS011;1616;52.394;9.756;2023-09-12T09:08:56;8.70;;;7.87;;
3207;SDS011;1616;52.394;9.756;2023-09-12T09:11:22;11.83;;;7.50;;
3207;SDS011;1616;52.394;9.756;2023-09-12T09:13:52;6.47;;;5.97;;
3207;SDS011;1616;52.394;9.756;2023-09-12T09:16:18;8.70;;;6.90;;
3207;SDS011;1616;52.394;9.756;2023-09-12T09:18:58;4.03;;;3.70;;
3207;SDS011;1616;52.394;9.756;2023-09-12T09:21:26;3.87;;;3.67;;
3207;SDS011;1616;52.394;9.756;2023-09-12T09:23:55;5.23;;;3.60;;
3207;SDS011;1616;52.394;9.756;2023-09-12T09:26:21;4.50;;;4.20;;
3207;SDS011;1616;52.394;9.756;2023-09-12T09:29:03;3.17;;;2.97;;
3207;SDS011;1616;52.394;9.756;2023-09-12T09:31:30;3.53;;;3.33;;
3207;SDS011;1616;52.394;9.756;2023-09-12T09:33:58;3.87;;;3.67;;
3207;SDS011;1616;52.394;9.756;2023-09-12T09:36:24;3.87;;;3.57;;
3207;SDS011;1616;52.394;9.756;2023-09-12T09:38:51;4.70;;;4.50;;
3207;SDS011;1616;52.394;9.756;2023-09-12T09:41:19;5.20;;;4.67;;
3207;SDS011;1616;52.394;9.756;2023-09-12T09:43:48;4.90;;;4.70;;
3207;SDS011;1616;52.394;9.756;2023-09-12T09:46:16;5.40;;;4.90;;
3207;SDS011;1616;52.394;9.756;2023-09-12T09:48:51;6.57;;;6.20;;
3207;SDS011;1616;52.394;9.756;2023-09-12T09:51:17;6.17;;;5.67;;
3207;SDS011;1616;52.394;9.756;2023-09-12T09:53:43;5.17;;;4.83;;
3207;SDS011;1616;52.394;9.756;2023-09-12T09:56:13;5.20;;;4.80;;
3207;SDS011;1616;52.394;9.756;2023-09-12T09:58:46;5.40;;;5.00;;
3207;SDS011;1616;52.394;9.756;2023-09-12T10:01:14;5.67;;;5.27;;
3207;SDS011;1616;52.394;9.756;2023-09-12T10:03:45;4.80;;;4.60;;
3207;SDS011;1616;52.394;9.756;2023-09-12T10:06:15;5.43;;;5.23;;
3207;SDS011;1616;52.394;9.756;2023-09-12T10:08:43;5.47;;;4.97;;
3207;SDS011;1616;52.394;9.756;2023-09-12T10:11:11;10.13;;;8.87;;
3207;SDS011;1616;52.394;9.756;2023-09-12T10:13:40;10.33;;;7.07;;
3207;SDS011;1616;52.394;9.756;2023-09-12T10:16:14;8.10;;;7.27;;
3207;SDS011;1616;52.394;9.756;2023-09-12T10:18:44;6.30;;;5.43;;
3207;SDS011;1616;52.394;9.756;2023-09-12T10:21:20;6.00;;;5.70;;
3207;SDS011;1616;52.394;9.756;2023-09-12T10:23:51;5.77;;;5.37;;
3207;SDS011;1616;52.394;9.756;2023-09-12T10:26:17;5.77;;;5.20;;
3207;SDS011;1616;52.394;9.756;2023-09-12T10:28:44;6.20;;;5.90;;
3207;SDS011;1616;52.394;9.756;2023-09-12T10:31:12;6.87;;;6.47;;
3207;SDS011;1616;52.394;9.756;2023-09-12T10:33:38;5.90;;;5.53;;
3207;SDS011;1616;52.394;9.756;2023-09-12T10:36:05;5.00;;;4.80;;
3207;SDS011;1616;52.394;9.756;2023-09-12T10:38:33;6.17;;;5.77;;
3207;SDS011;1616;52.394;9.756;2023-09-12T10:41:09;4.87;;;4.57;;
3207;SDS011;1616;52.394;9.756;2023-09-12T10:43:40;6.07;;;5.77;;
3207;SDS011;1616;52.394;9.756;2023-09-12T10:46:08;6.23;;;5.83;;
3207;SDS011;1616;52.394;9.756;2023-09-12T10:48:36;5.23;;;4.93;;
3207;SDS011;1616;52.394;9.756;2023-09-12T10:51:03;5.30;;;4.90;;
3207;SDS011;1616;52.394;9.756;2023-09-12T10:53:30;4.60;;;4.40;;
3207;SDS011;1616;52.394;9.756;2023-09-12T10:56:14;7.50;;;5.87;;
3207;SDS011;1616;52.394;9.756;2023-09-12T11:01:40;7.03;;;6.63;;
3207;SDS011;1616;52.394;9.756;2023-09-12T11:06:52;6.70;;;6.30;;
3207;SDS011;1616;52.394;9.756;2023-09-12T11:12:03;5.00;;;4.73;;
3207;SDS011;1616;52.394;9.756;2023-09-12T11:14:30;5.30;;;4.80;;
3207;SDS011;1616;52.394;9.756;2023-09-12T11:19:42;4.43;;;4.23;;
3207;SDS011;1616;52.394;9.756;2023-09-12T11:22:51;7.10;;;6.57;;
3207;SDS011;1616;52.394;9.756;2023-09-12T11:25:03;5.83;;;5.53;;
3207;SDS011;1616;52.394;9.756;2023-09-12T11:28:16;9.30;;;8.80;;
3207;SDS011;1616;52.394;9.756;2023-09-12T11:30:20;9.23;;;7.67;;
3207;SDS011;1616;52.394;9.756;2023-09-12T11:32:48;7.70;;;7.30;;
3207;SDS011;1616;52.394;9.756;2023-09-12T11:35:16;9.80;;;6.33;;
3207;SDS011;1616;52.394;9.756;2023-09-12T11:42:59;8.50;;;7.80;;
3207;SDS011;1616;52.394;9.756;2023-09-12T11:45:25;7.07;;;6.37;;
3207;SDS011;1616;52.394;9.756;2023-09-12T11:47:53;6.10;;;5.80;;
3207;SDS011;1616;52.394;9.756;2023-09-12T11:50:32;7.57;;;7.20;;
3207;SDS011;1616;52.394;9.756;2023-09-12T11:55:33;19.03;;;10.80;;
3207;SDS011;1616;52.394;9.756;2023-09-12T11:58:01;11.40;;;8.83;;
3207;SDS011;1616;52.394;9.756;2023-09-12T12:00:28;10.60;;;9.53;;
3207;SDS011;1616;52.394;9.756;2023-09-12T12:02:54;11.23;;;10.13;;
3207;SDS011;1616;52.394;9.756;2023-09-12T12:05:21;10.07;;;9.10;;
3207;SDS011;1616;52.394;9.756;2023-09-12T12:07:48;10.40;;;9.50;;
3207;SDS011;1616;52.394;9.756;2023-09-12T12:10:16;13.33;;;11.00;;
3207;SDS011;1616;52.394;9.756;2023-09-12T12:12:42;10.87;;;9.87;;
3207;SDS011;1616;52.394;9.756;2023-09-12T12:15:11;9.33;;;8.63;;
3207;SDS011;1616;52.394;9.756;2023-09-12T12:17:37;8.73;;;8.10;;
3207;SDS011;1616;52.394;9.756;2023-09-12T12:20:06;10.10;;;9.17;;
3207;SDS011;1616;52.394;9.756;2023-09-12T12:22:35;9.20;;;8.70;;
3207;SDS011;1616;52.394;9.756;2023-09-12T12:25:09;10.50;;;9.80;;
3207;SDS011;1616;52.394;9.756;2023-09-12T12:27:36;7.10;;;6.70;;
3207;SDS011;1616;52.394;9.756;2023-09-12T12:30:04;8.20;;;7.60;;
3207;SDS011;1616;52.394;9.756;2023-09-12T12:32:32;6.60;;;6.20;;
3207;SDS011;1616;52.394;9.756;2023-09-12T12:34:57;8.47;;;7.87;;
3207;SDS011;1616;52.394;9.756;2023-09-12T12:37:32;8.67;;;8.00;;
3207;SDS011;1616;52.394;9.756;2023-09-12T12:39:59;6.93;;;6.53;;
3207;SDS011;1616;52.394;9.756;2023-09-12T12:42:35;6.13;;;5.73;;
3207;SDS011;1616;52.394;9.756;2023-09-12T12:45:10;6.17;;;5.67;;
3207;SDS011;1616;52.394;9.756;2023-09-12T12:47:39;7.10;;;6.50;;
3207;SDS011;1616;52.394;9.756;2023-09-12T12:50:15;5.30;;;5.10;;
3207;SDS011;1616;52.394;9.756;2023-09-12T12:52:43;5.30;;;4.97;;
3207;SDS011;1616;52.394;9.756;2023-09-12T12:55:12;7.30;;;7.00;;
3207;SDS011;1616;52.394;9.756;2023-09-12T12:57:40;8.70;;;8.00;;
3207;SDS011;1616;52.394;9.756;2023-09-12T13:02:36;9.80;;;8.80;;
3207;SDS011;1616;52.394;9.756;2023-09-12T13:05:03;7.27;;;6.87;;
3207;SDS011;1616;52.394;9.756;2023-09-12T13:07:36;8.20;;;7.70;;
3207;SDS011;1616;52.394;9.756;2023-09-12T13:10:02;5.80;;;5.17;;
3207;SDS011;1616;52.394;9.756;2023-09-12T13:12:29;6.33;;;6.03;;
3207;SDS011;1616;52.394;9.756;2023-09-12T13:14:55;5.90;;;5.60;;
3207;SDS011;1616;52.394;9.756;2023-09-12T13:17:21;6.70;;;6.27;;
3207;SDS011;1616;52.394;9.756;2023-09-12T13:19:47;4.60;;;4.30;;
3207;SDS011;1616;52.394;9.756;2023-09-12T13:22:13;4.90;;;4.47;;
3207;SDS011;1616;52.394;9.756;2023-09-12T13:24:38;6.73;;;4.23;;
3207;SDS011;1616;52.394;9.756;2023-09-12T13:27:04;5.60;;;4.10;;
3207;SDS011;1616;52.394;9.756;2023-09-12T13:29:30;3.77;;;3.57;;
3207;SDS011;1616;52.394;9.756;2023-09-12T13:31:56;3.33;;;3.13;;
3207;SDS011;1616;52.394;9.756;2023-09-12T13:34:22;3.83;;;3.53;;
3207;SDS011;1616;52.394;9.756;2023-09-12T13:36:48;3.53;;;3.33;;
3207;SDS011;1616;52.394;9.756;2023-09-12T13:39:14;4.10;;;3.90;;
3207;SDS011;1616;52.394;9.756;2023-09-12T13:41:39;4.50;;;3.43;;
3207;SDS011;1616;52.394;9.756;2023-09-12T13:44:06;4.70;;;4.40;;
3207;SDS011;1616;52.394;9.756;2023-09-12T13:46:31;4.67;;;4.37;;
3207;SDS011;1616;52.394;9.756;2023-09-12T13:48:57;6.03;;;5.40;;
3207;SDS011;1616;52.394;9.756;2023-09-12T13:51:29;4.73;;;4.43;;
3207;SDS011;1616;52.394;9.756;2023-09-12T13:53:55;4.90;;;4.67;;
3207;SDS011;1616;52.394;9.756;2023-09-12T13:56:21;4.77;;;4.30;;
3207;SDS011;1616;52.394;9.756;2023-09-12T13:58:46;4.43;;;4.03;;
3207;SDS011;1616;52.394;9.756;2023-09-12T14:01:12;4.07;;;3.87;;
3207;SDS011;1616;52.394;9.756;2023-09-12T14:03:38;10.27;;;3.57;;
3207;SDS011;1616;52.394;9.756;2023-09-12T14:06:04;4.13;;;3.93;;
3207;SDS011;1616;52.394;9.756;2023-09-12T14:08:29;3.23;;;3.03;;
3207;SDS011;1616;52.394;9.756;2023-09-12T14:10:55;4.00;;;3.80;;
3207;SDS011;1616;52.394;9.756;2023-09-12T14:13:21;3.33;;;3.13;;
3207;SDS011;1616;52.394;9.756;2023-09-12T14:15:46;5.23;;;1.93;;
3207;SDS011;1616;52.394;9.756;2023-09-12T14:18:14;3.03;;;2.83;;
3207;SDS011;1616;52.394;9.756;2023-09-12T14:20:40;2.03;;;1.93;;
3207;SDS011;1616;52.394;9.756;2023-09-12T14:23:06;3.37;;;2.40;;
3207;SDS011;1616;52.394;9.756;2023-09-12T14:25:31;3.73;;;2.70;;
3207;SDS011;1616;52.394;9.756;2023-09-12T14:27:57;1.87;;;1.77;;
3207;SDS011;1616;52.394;9.756;2023-09-12T14:30:22;2.47;;;2.27;;
3207;SDS011;1616;52.394;9.756;2023-09-12T14:32:51;2.00;;;1.90;;
3207;SDS011;1616;52.394;9.756;2023-09-12T14:35:17;4.43;;;2.90;;
3207;SDS011;1616;52.394;9.756;2023-09-12T14:37:42;2.47;;;2.27;;
3207;SDS011;1616;52.394;9.756;2023-09-12T14:40:08;2.90;;;2.00;;
3207;SDS011;1616;52.394;9.756;2023-09-12T14:42:36;5.00;;;2.50;;
3207;SDS011;1616;52.394;9.756;2023-09-12T14:45:02;2.13;;;1.97;;
3207;SDS011;1616;52.394;9.756;2023-09-12T14:47:27;2.00;;;1.80;;
3207;SDS011;1616;52.394;9.756;2023-09-12T14:49:55;2.27;;;1.60;;
3207;SDS011;1616;52.394;9.756;2023-09-12T14:52:21;3.83;;;1.90;;
3207;SDS011;1616;52.394;9.756;2023-09-12T14:54:47;3.10;;;2.30;;
3207;SDS011;1616;52.394;9.756;2023-09-12T14:57:13;1.80;;;1.70;;
3207;SDS011;1616;52.394;9.756;2023-09-12T14:59:38;2.53;;;1.80;;
3207;SDS011;1616;52.394;9.756;2023-09-12T15:02:04;2.23;;;1.60;;
3207;SDS011;1616;52.394;9.756;2023-09-12T15:04:29;2.20;;;2.00;;
3207;SDS011;1616;52.394;9.756;2023-09-12T15:06:55;1.77;;;1.67;;
3207;SDS011;1616;52.394;9.756;2023-09-12T15:09:20;2.30;;;2.20;;
3207;SDS011;1616;52.394;9.756;2023-09-12T15:11:46;2.10;;;1.90;;
3207;SDS011;1616;52.394;9.756;2023-09-12T15:14:12;2.10;;;2.00;;
3207;SDS011;1616;52.394;9.756;2023-09-12T15:16:38;2.30;;;2.10;;
3207;SDS011;1616;52.394;9.756;2023-09-12T15:19:03;2.10;;;2.00;;
3207;SDS011;1616;52.394;9.756;2023-09-12T15:21:29;3.33;;;1.73;;
3207;SDS011;1616;52.394;9.756;2023-09-12T15:23:55;2.30;;;2.10;;
3207;SDS011;1616;52.394;9.756;2023-09-12T15:26:20;2.50;;;1.83;;
3207;SDS011;1616;52.394;9.756;2023-09-12T15:28:46;9.50;;;2.50;;
3207;SDS011;1616;52.394;9.756;2023-09-12T15:31:11;1.70;;;1.60;;